createdAt,value
2017-07-22T00:00:20.669Z,93.91
2017-07-22T00:01:22.094Z,93.81
2017-07-22T00:02:23.518Z,94.39
2017-07-22T00:03:24.952Z,94.82
2017-07-22T00:04:26.377Z,95.31
2017-07-22T00:05:27.807Z,96.75
2017-07-22T00:06:29.230Z,96.17
2017-07-22T00:07:30.659Z,96.08
2017-07-22T00:08:32.103Z,96.08
2017-07-22T00:09:33.527Z,95.89
2017-07-22T00:10:34.955Z,95.40
2017-07-22T00:11:36.381Z,95.02
2017-07-22T00:12:37.813Z,95.40
2017-07-22T00:13:39.250Z,96.12
2017-07-22T00:14:40.683Z,95.40
2017-07-22T00:15:42.120Z,95.02
2017-07-22T00:16:43.603Z,95.79
2017-07-22T00:17:45.009Z,96.46
2017-07-22T00:18:46.441Z,95.69
2017-07-22T00:19:47.864Z,96.56
2017-07-22T00:20:49.296Z,96.75
2017-07-22T00:21:50.717Z,96.75
2017-07-22T00:22:52.160Z,97.24
2017-07-22T00:23:53.581Z,96.75
2017-07-22T00:24:55.015Z,96.75
2017-07-22T00:25:56.443Z,96.37
2017-07-22T00:26:57.861Z,96.37
2017-07-22T00:27:59.295Z,96.46
2017-07-22T00:29:00.729Z,96.94
2017-07-22T00:30:02.156Z,96.94
2017-07-22T00:31:03.579Z,97.57
2017-07-22T00:32:05.010Z,97.76
2017-07-22T00:33:06.458Z,97.04
2017-07-22T00:34:07.886Z,97.33
2017-07-22T00:35:09.342Z,97.81
2017-07-22T00:36:10.767Z,97.72
2017-07-22T00:37:12.184Z,96.75
2017-07-22T00:38:13.611Z,97.24
2017-07-22T00:39:15.086Z,97.47
2017-07-22T00:40:16.517Z,97.14
2017-07-22T00:41:17.954Z,97.72
2017-07-22T00:42:19.379Z,97.62
2017-07-22T00:43:20.809Z,97.86
2017-07-22T00:44:22.246Z,98.15
2017-07-22T00:45:23.671Z,98.34
2017-07-22T00:46:25.102Z,98.82
2017-07-22T00:47:26.627Z,98.68
2017-07-22T00:48:28.048Z,97.81
2017-07-22T00:49:29.478Z,97.62
2017-07-22T00:50:30.910Z,97.52
2017-07-22T00:51:32.368Z,97.81
2017-07-22T00:52:33.788Z,98.34
2017-07-22T00:53:35.225Z,97.96
2017-07-22T00:54:36.647Z,98.24
2017-07-22T00:55:38.065Z,98.68
2017-07-22T00:56:39.495Z,97.33
2017-07-22T00:57:40.915Z,98.68
2017-07-22T00:58:42.344Z,98.58
2017-07-22T00:59:43.776Z,98.39
2017-07-22T01:00:45.199Z,98.34
2017-07-22T01:01:46.625Z,98.49
2017-07-22T01:02:48.053Z,98.39
2017-07-22T01:03:49.475Z,98.54
2017-07-22T01:04:50.900Z,98.39
2017-07-22T01:05:52.322Z,98.39
2017-07-22T01:06:53.750Z,97.33
2017-07-22T01:07:55.182Z,97.81
2017-07-22T01:08:56.609Z,97.42
2017-07-22T01:09:58.033Z,97.24
2017-07-22T01:10:59.465Z,96.94
2017-07-22T01:12:00.896Z,96.27
2017-07-22T01:13:02.320Z,96.66
2017-07-22T01:14:03.748Z,96.17
2017-07-22T01:15:05.172Z,96.37
2017-07-22T01:16:06.601Z,96.56
2017-07-22T01:17:08.027Z,96.94
2017-07-22T01:18:09.520Z,97.04
2017-07-22T01:19:10.948Z,97.04
2017-07-22T01:20:12.368Z,97.42
2017-07-22T01:21:13.795Z,97.91
2017-07-22T01:22:15.219Z,98.44
2017-07-22T01:23:16.654Z,99.11
2017-07-22T01:24:18.087Z,99.35
2017-07-22T01:25:19.508Z,99.55
2017-07-22T01:26:20.935Z,99.79
2017-07-22T01:27:22.359Z,99.99
2017-07-22T01:28:23.794Z,99.99
2017-07-22T01:29:25.222Z,99.99
2017-07-22T01:30:26.657Z,99.99
2017-07-22T01:31:28.083Z,99.99
2017-07-22T01:32:29.523Z,99.99
2017-07-22T01:33:30.955Z,99.99
2017-07-22T01:34:32.381Z,99.99
2017-07-22T01:35:33.806Z,99.99
2017-07-22T01:36:35.232Z,99.99
2017-07-22T01:37:36.653Z,99.99
2017-07-22T01:38:38.086Z,99.99
2017-07-22T01:39:39.512Z,99.99
2017-07-22T01:40:40.945Z,99.99
2017-07-22T01:41:42.365Z,99.99
2017-07-22T01:42:43.797Z,99.99
2017-07-22T01:43:45.220Z,99.99
2017-07-22T01:44:46.650Z,99.99
2017-07-22T01:45:48.089Z,99.99
2017-07-22T01:46:49.513Z,99.99
2017-07-22T01:47:50.945Z,99.99
2017-07-22T01:48:52.367Z,99.99
2017-07-22T01:49:53.791Z,99.99
2017-07-22T01:50:55.223Z,99.99
2017-07-22T01:51:56.658Z,99.99
2017-07-22T01:52:58.088Z,99.99
2017-07-22T01:53:59.510Z,99.99
2017-07-22T01:55:00.952Z,99.99
2017-07-22T01:56:02.439Z,99.99
2017-07-22T01:57:03.864Z,99.99
2017-07-22T01:58:05.289Z,99.99
2017-07-22T01:59:06.718Z,99.99
2017-07-22T02:00:08.150Z,99.99
2017-07-22T02:01:09.569Z,99.99
2017-07-22T02:02:10.989Z,99.99
2017-07-22T02:03:12.415Z,99.99
2017-07-22T02:04:13.843Z,99.99
2017-07-22T02:05:15.268Z,99.99
2017-07-22T02:06:16.694Z,99.99
2017-07-22T02:07:18.114Z,99.99
2017-07-22T02:08:19.550Z,99.99
2017-07-22T02:09:20.974Z,99.99
2017-07-22T02:10:22.398Z,99.99
2017-07-22T02:11:23.817Z,99.99
2017-07-22T02:12:25.257Z,99.99
2017-07-22T02:13:26.689Z,99.99
2017-07-22T02:14:28.102Z,99.99
2017-07-22T02:15:29.529Z,99.99
2017-07-22T02:16:30.962Z,99.99
2017-07-22T02:17:32.388Z,99.99
2017-07-22T02:18:33.818Z,99.99
2017-07-22T02:19:35.240Z,99.99
2017-07-22T02:20:36.667Z,99.99
2017-07-22T02:21:38.097Z,99.99
2017-07-22T02:22:40.333Z,99.99
2017-07-22T02:23:42.032Z,99.99
2017-07-22T02:24:43.506Z,99.99
2017-07-22T02:25:44.929Z,99.99
2017-07-22T02:26:46.357Z,99.99
2017-07-22T02:27:47.787Z,99.99
2017-07-22T02:28:49.211Z,99.99
2017-07-22T02:29:50.638Z,99.99
2017-07-22T02:30:52.062Z,99.99
2017-07-22T02:31:53.491Z,99.99
2017-07-22T02:32:54.924Z,99.99
2017-07-22T02:33:56.346Z,99.99
2017-07-22T02:34:57.770Z,99.99
2017-07-22T02:35:59.197Z,99.99
2017-07-22T02:37:00.629Z,99.99
2017-07-22T02:38:02.052Z,99.99
2017-07-22T02:39:03.476Z,99.99
2017-07-22T02:40:04.911Z,99.99
2017-07-22T02:41:06.335Z,99.99
2017-07-22T02:42:07.757Z,99.99
2017-07-22T02:43:09.176Z,99.99
2017-07-22T02:44:10.609Z,99.99
2017-07-22T02:45:12.030Z,99.99
2017-07-22T02:46:13.459Z,99.99
2017-07-22T02:47:14.874Z,99.99
2017-07-22T02:48:16.306Z,99.99
2017-07-22T02:49:17.732Z,99.99
2017-07-22T02:50:19.157Z,99.99
2017-07-22T02:51:20.588Z,99.99
2017-07-22T02:52:22.005Z,99.99
2017-07-22T02:53:23.433Z,99.99
2017-07-22T02:54:24.860Z,99.99
2017-07-22T02:55:26.288Z,99.99
2017-07-22T02:56:27.710Z,99.99
2017-07-22T02:57:29.144Z,99.99
2017-07-22T02:58:30.567Z,99.99
2017-07-22T02:59:31.996Z,99.99
2017-07-22T03:00:33.422Z,99.99
2017-07-22T03:01:34.900Z,99.99
2017-07-22T03:02:36.330Z,99.99
2017-07-22T03:03:37.747Z,99.99
2017-07-22T03:04:39.179Z,99.99
2017-07-22T03:05:40.694Z,99.99
2017-07-22T03:06:42.117Z,99.99
2017-07-22T03:07:43.555Z,99.99
2017-07-22T03:08:44.979Z,99.99
2017-07-22T03:09:46.406Z,99.99
2017-07-22T03:10:47.832Z,99.99
2017-07-22T03:11:49.283Z,99.99
2017-07-22T03:12:50.718Z,99.99
2017-07-22T03:13:52.140Z,99.99
2017-07-22T03:14:53.571Z,99.99
2017-07-22T03:15:55.002Z,99.99
2017-07-22T03:16:56.550Z,99.99
2017-07-22T03:17:57.978Z,99.99
2017-07-22T03:18:59.399Z,99.99
2017-07-22T03:20:00.826Z,99.99
2017-07-22T03:21:02.249Z,99.99
2017-07-22T03:22:03.684Z,99.99
2017-07-22T03:23:05.107Z,99.99
2017-07-22T03:24:07.142Z,99.99
2017-07-22T03:25:08.566Z,99.99
2017-07-22T03:26:09.987Z,99.99
2017-07-22T03:27:11.416Z,99.99
2017-07-22T03:28:12.849Z,99.99
2017-07-22T03:29:14.283Z,99.99
2017-07-22T03:30:15.718Z,99.99
2017-07-22T03:31:17.274Z,99.99
2017-07-22T03:32:18.669Z,99.99
2017-07-22T03:33:20.088Z,99.99
2017-07-22T03:34:21.516Z,99.99
2017-07-22T03:35:22.943Z,99.99
2017-07-22T03:36:24.364Z,99.99
2017-07-22T03:37:25.792Z,99.99
2017-07-22T03:38:27.229Z,99.99
2017-07-22T03:39:28.649Z,99.99
2017-07-22T03:40:30.095Z,99.99
2017-07-22T03:41:31.501Z,99.99
2017-07-22T03:42:32.923Z,99.99
2017-07-22T03:43:34.353Z,99.99
2017-07-22T03:44:35.779Z,99.99
2017-07-22T03:45:37.200Z,99.99
2017-07-22T03:46:38.630Z,99.99
2017-07-22T03:47:40.057Z,99.99
2017-07-22T03:48:41.483Z,99.99
2017-07-22T03:49:42.907Z,99.99
2017-07-22T03:50:44.332Z,99.99
2017-07-22T03:51:45.754Z,99.99
2017-07-22T03:52:47.178Z,99.99
2017-07-22T03:53:48.604Z,99.99
2017-07-22T03:54:50.028Z,99.99
2017-07-22T03:55:51.461Z,99.99
2017-07-22T03:56:52.892Z,99.99
2017-07-22T03:57:54.318Z,99.99
2017-07-22T03:58:55.744Z,99.99
2017-07-22T03:59:57.174Z,99.99
2017-07-22T04:00:58.604Z,99.99
2017-07-22T04:02:00.041Z,99.99
2017-07-22T04:03:01.463Z,99.99
2017-07-22T04:04:02.953Z,99.99
2017-07-22T04:05:04.377Z,99.99
2017-07-22T04:06:05.812Z,99.99
2017-07-22T04:07:07.240Z,99.99
2017-07-22T04:08:08.670Z,99.99
2017-07-22T04:09:10.098Z,99.99
2017-07-22T04:10:11.520Z,99.99
2017-07-22T04:11:12.952Z,99.99
2017-07-22T04:12:14.379Z,99.99
2017-07-22T04:13:15.811Z,99.99
2017-07-22T04:14:17.237Z,99.99
2017-07-22T04:15:18.663Z,99.99
2017-07-22T04:16:20.092Z,99.99
2017-07-22T04:17:21.522Z,99.99
2017-07-22T04:18:22.955Z,99.99
2017-07-22T04:19:24.379Z,99.99
2017-07-22T04:20:25.805Z,99.99
2017-07-22T04:21:27.226Z,99.99
2017-07-22T04:22:28.648Z,99.99
2017-07-22T04:23:30.075Z,99.99
2017-07-22T04:24:31.497Z,99.99
2017-07-22T04:25:32.927Z,99.99
2017-07-22T04:26:34.355Z,99.99
2017-07-22T04:27:35.780Z,99.99
2017-07-22T04:28:37.211Z,99.99
2017-07-22T04:29:38.637Z,99.99
2017-07-22T04:30:40.065Z,99.99
2017-07-22T04:31:42.431Z,99.99
2017-07-22T04:32:43.855Z,99.99
2017-07-22T04:33:45.294Z,99.99
2017-07-22T04:34:46.720Z,99.99
2017-07-22T04:35:48.147Z,99.99
2017-07-22T04:36:49.583Z,99.99
2017-07-22T04:37:51.008Z,99.99
2017-07-22T04:38:52.434Z,99.99
2017-07-22T04:39:53.860Z,99.99
2017-07-22T04:40:55.284Z,99.99
2017-07-22T04:41:56.712Z,99.99
2017-07-22T04:42:58.141Z,99.99
2017-07-22T04:43:59.564Z,99.99
2017-07-22T04:45:00.992Z,99.99
2017-07-22T04:46:02.416Z,99.99
2017-07-22T04:47:03.846Z,99.99
2017-07-22T04:48:05.269Z,99.99
2017-07-22T04:49:06.693Z,99.99
2017-07-22T04:50:08.120Z,99.99
2017-07-22T04:51:09.545Z,99.99
2017-07-22T04:52:10.977Z,99.99
2017-07-22T04:53:12.406Z,99.99
2017-07-22T04:54:13.836Z,99.99
2017-07-22T04:55:15.265Z,99.99
2017-07-22T04:56:16.692Z,99.99
2017-07-22T04:57:18.119Z,99.99
2017-07-22T04:58:19.548Z,99.99
2017-07-22T04:59:20.976Z,99.99
2017-07-22T05:00:22.410Z,99.99
2017-07-22T05:01:23.840Z,99.99
2017-07-22T05:02:25.292Z,99.99
2017-07-22T05:03:26.729Z,99.99
2017-07-22T05:04:28.150Z,99.99
2017-07-22T05:05:29.574Z,99.99
2017-07-22T05:06:31.059Z,99.99
2017-07-22T05:07:32.490Z,99.99
2017-07-22T05:08:33.916Z,99.99
2017-07-22T05:09:35.347Z,99.99
2017-07-22T05:10:36.776Z,99.99
2017-07-22T05:11:38.201Z,99.99
2017-07-22T05:12:39.638Z,99.99
2017-07-22T05:13:41.062Z,99.99
2017-07-22T05:14:42.511Z,99.99
2017-07-22T05:15:43.939Z,99.99
2017-07-22T05:16:45.365Z,99.99
2017-07-22T05:17:46.797Z,99.99
2017-07-22T05:18:48.227Z,99.99
2017-07-22T05:19:49.656Z,99.99
2017-07-22T05:20:51.077Z,99.99
2017-07-22T05:21:52.510Z,99.99
2017-07-22T05:22:53.943Z,99.99
2017-07-22T05:23:55.427Z,99.99
2017-07-22T05:24:56.846Z,99.99
2017-07-22T05:25:58.291Z,99.99
2017-07-22T05:26:59.725Z,99.99
2017-07-22T05:28:01.154Z,99.99
2017-07-22T05:29:02.579Z,99.99
2017-07-22T05:30:04.007Z,99.99
2017-07-22T05:31:05.434Z,99.99
2017-07-22T05:32:06.869Z,99.99
2017-07-22T05:33:08.293Z,99.99
2017-07-22T05:34:09.728Z,99.99
2017-07-22T05:35:11.156Z,99.99
2017-07-22T05:36:12.579Z,99.99
2017-07-22T05:37:14.011Z,99.99
2017-07-22T05:38:15.460Z,99.99
2017-07-22T05:39:17.007Z,99.99
2017-07-22T05:40:18.439Z,99.99
2017-07-22T05:41:19.869Z,99.99
2017-07-22T05:42:21.293Z,99.99
2017-07-22T05:43:22.718Z,99.99
2017-07-22T05:44:24.146Z,99.99
2017-07-22T05:45:25.571Z,99.99
2017-07-22T05:46:26.998Z,99.99
2017-07-22T05:47:28.432Z,99.99
2017-07-22T05:48:29.863Z,99.99
2017-07-22T05:49:31.292Z,99.99
2017-07-22T05:50:32.719Z,99.99
2017-07-22T05:51:34.154Z,99.99
2017-07-22T05:52:35.592Z,99.99
2017-07-22T05:53:37.023Z,99.99
2017-07-22T05:54:38.452Z,99.99
2017-07-22T05:55:39.875Z,99.99
2017-07-22T05:56:41.305Z,99.99
2017-07-22T05:57:42.738Z,99.99
2017-07-22T05:58:44.172Z,99.99
2017-07-22T05:59:45.598Z,99.99
2017-07-22T06:00:47.033Z,99.99
2017-07-22T06:01:48.458Z,99.99
2017-07-22T06:02:49.884Z,99.99
2017-07-22T06:03:51.308Z,99.99
2017-07-22T06:04:52.739Z,99.99
2017-07-22T06:05:54.177Z,99.99
2017-07-22T06:06:55.605Z,99.99
2017-07-22T06:07:57.032Z,99.99
2017-07-22T06:08:58.464Z,99.99
2017-07-22T06:09:59.891Z,99.99
2017-07-22T06:11:01.323Z,99.99
2017-07-22T06:12:02.758Z,99.99
2017-07-22T06:13:04.185Z,99.99
2017-07-22T06:14:05.616Z,99.99
2017-07-22T06:15:07.045Z,99.99
2017-07-22T06:16:08.477Z,99.99
2017-07-22T06:17:09.910Z,99.99
2017-07-22T06:18:11.333Z,99.99
2017-07-22T06:19:12.765Z,99.99
2017-07-22T06:20:14.186Z,99.99
2017-07-22T06:21:15.616Z,99.99
2017-07-22T06:22:17.059Z,99.99
2017-07-22T06:23:18.475Z,99.99
2017-07-22T06:24:19.905Z,99.99
2017-07-22T06:25:21.338Z,99.99
2017-07-22T06:26:22.763Z,99.99
2017-07-22T06:27:24.191Z,99.99
2017-07-22T06:28:25.622Z,99.99
2017-07-22T06:29:27.107Z,99.99
2017-07-22T06:30:28.532Z,99.99
2017-07-22T06:31:29.980Z,99.99
2017-07-22T06:32:31.388Z,99.99
2017-07-22T06:33:32.818Z,99.99
2017-07-22T06:34:34.248Z,99.99
2017-07-22T06:35:35.673Z,99.99
2017-07-22T06:36:37.110Z,99.99
2017-07-22T06:37:38.577Z,99.99
2017-07-22T06:38:40.004Z,99.99
2017-07-22T06:39:41.432Z,99.99
2017-07-22T06:40:42.873Z,99.99
2017-07-22T06:41:44.298Z,99.99
2017-07-22T06:42:45.729Z,99.99
2017-07-22T06:43:47.263Z,99.99
2017-07-22T06:44:48.697Z,99.99
2017-07-22T06:45:50.127Z,99.99
2017-07-22T06:46:51.563Z,99.99
2017-07-22T06:47:52.995Z,99.99
2017-07-22T06:48:54.510Z,99.99
2017-07-22T06:49:55.939Z,99.99
2017-07-22T06:50:57.400Z,99.99
2017-07-22T06:51:59.686Z,99.99
2017-07-22T06:53:01.113Z,99.99
2017-07-22T06:54:02.540Z,99.99
2017-07-22T06:55:03.972Z,99.99
2017-07-22T06:56:05.412Z,99.99
2017-07-22T06:57:06.842Z,99.99
2017-07-22T06:58:08.268Z,99.99
2017-07-22T06:59:09.702Z,99.99
2017-07-22T07:00:11.130Z,99.99
2017-07-22T07:01:12.555Z,99.99
2017-07-22T07:02:13.987Z,99.99
2017-07-22T07:03:15.421Z,99.99
2017-07-22T07:04:16.852Z,99.99
2017-07-22T07:05:18.288Z,99.99
2017-07-22T07:06:19.728Z,99.99
2017-07-22T07:07:21.169Z,99.99
2017-07-22T07:08:22.598Z,99.99
2017-07-22T07:09:24.031Z,99.99
2017-07-22T07:10:25.466Z,99.99
2017-07-22T07:11:26.895Z,99.99
2017-07-22T07:12:28.333Z,99.99
2017-07-22T07:13:29.753Z,99.99
2017-07-22T07:14:31.184Z,99.99
2017-07-22T07:15:32.607Z,99.99
2017-07-22T07:16:34.039Z,99.99
2017-07-22T07:17:35.466Z,99.99
2017-07-22T07:18:36.896Z,99.99
2017-07-22T07:19:38.325Z,99.99
2017-07-22T07:20:39.767Z,99.99
2017-07-22T07:21:41.197Z,99.99
2017-07-22T07:22:42.629Z,99.99
2017-07-22T07:23:44.058Z,99.99
2017-07-22T07:24:45.483Z,99.99
2017-07-22T07:25:46.918Z,99.99
2017-07-22T07:26:48.349Z,99.99
2017-07-22T07:27:49.778Z,99.99
2017-07-22T07:28:51.206Z,99.99
2017-07-22T07:29:52.640Z,99.99
2017-07-22T07:30:54.072Z,99.99
2017-07-22T07:31:55.500Z,99.99
2017-07-22T07:32:56.935Z,99.99
2017-07-22T07:33:58.363Z,99.99
2017-07-22T07:34:59.808Z,99.99
2017-07-22T07:36:01.236Z,99.99
2017-07-22T07:37:02.668Z,99.99
2017-07-22T07:38:04.095Z,99.99
2017-07-22T07:39:05.529Z,99.99
2017-07-22T07:40:06.963Z,99.99
2017-07-22T07:41:08.394Z,99.99
2017-07-22T07:42:09.823Z,99.99
2017-07-22T07:43:11.255Z,99.99
2017-07-22T07:44:12.690Z,99.99
2017-07-22T07:45:14.121Z,99.99
2017-07-22T07:46:15.550Z,99.99
2017-07-22T07:47:16.978Z,99.99
2017-07-22T07:48:18.399Z,99.99
2017-07-22T07:49:19.833Z,99.99
2017-07-22T07:50:21.352Z,99.99
2017-07-22T07:51:22.778Z,99.99
2017-07-22T07:52:24.226Z,99.99
2017-07-22T07:53:25.660Z,99.99
2017-07-22T07:54:27.096Z,99.99
2017-07-22T07:55:28.530Z,99.99
2017-07-22T07:56:29.958Z,99.99
2017-07-22T07:57:31.404Z,99.99
2017-07-22T07:58:32.833Z,99.99
2017-07-22T07:59:34.273Z,99.99
2017-07-22T08:00:35.702Z,99.99
2017-07-22T08:01:37.129Z,99.99
2017-07-22T08:02:38.560Z,99.99
2017-07-22T08:03:39.986Z,99.99
2017-07-22T08:04:42.422Z,99.99
2017-07-22T08:05:43.855Z,99.99
2017-07-22T08:06:45.285Z,99.99
2017-07-22T08:07:46.721Z,99.99
2017-07-22T08:08:48.153Z,99.99
2017-07-22T08:09:49.594Z,99.99
2017-07-22T08:10:51.035Z,99.99
2017-07-22T08:11:52.487Z,99.99
2017-07-22T08:12:53.905Z,99.99
2017-07-22T08:13:55.338Z,99.99
2017-07-22T08:14:56.769Z,99.99
2017-07-22T08:15:58.212Z,99.99
2017-07-22T08:16:59.636Z,99.99
2017-07-22T08:18:01.074Z,99.99
2017-07-22T08:19:02.515Z,99.99
2017-07-22T08:20:03.950Z,99.99
2017-07-22T08:21:05.382Z,99.99
2017-07-22T08:22:06.825Z,99.99
2017-07-22T08:23:08.259Z,99.99
2017-07-22T08:24:09.697Z,99.99
2017-07-22T08:25:11.125Z,99.99
2017-07-22T08:26:12.566Z,99.99
2017-07-22T08:27:14.013Z,99.99
2017-07-22T08:28:15.449Z,99.99
2017-07-22T08:29:16.883Z,99.99
2017-07-22T08:30:18.310Z,99.99
2017-07-22T08:31:19.740Z,99.99
2017-07-22T08:32:21.173Z,99.99
2017-07-22T08:33:22.624Z,99.99
2017-07-22T08:34:24.057Z,99.99
2017-07-22T08:35:25.486Z,99.99
2017-07-22T08:36:27.534Z,99.99
2017-07-22T08:37:29.212Z,99.99
2017-07-22T08:38:30.646Z,99.99
2017-07-22T08:39:32.088Z,99.99
2017-07-22T08:40:33.513Z,99.99
2017-07-22T08:41:34.945Z,99.99
2017-07-22T08:42:36.375Z,99.99
2017-07-22T08:43:37.799Z,99.99
2017-07-22T08:44:39.233Z,99.99
2017-07-22T08:45:40.663Z,99.99
2017-07-22T08:46:42.095Z,99.99
2017-07-22T08:47:43.528Z,99.99
2017-07-22T08:48:44.965Z,99.99
2017-07-22T08:49:46.400Z,99.99
2017-07-22T08:50:47.826Z,99.99
2017-07-22T08:51:49.263Z,99.99
2017-07-22T08:52:50.697Z,99.99
2017-07-22T08:53:52.134Z,99.99
2017-07-22T08:54:53.567Z,99.99
2017-07-22T08:55:55.003Z,99.99
2017-07-22T08:56:56.442Z,99.99
2017-07-22T08:57:57.875Z,99.99
2017-07-22T08:58:59.300Z,99.99
2017-07-22T09:00:00.744Z,99.99
2017-07-22T09:01:02.174Z,99.99
2017-07-22T09:02:03.604Z,99.99
2017-07-22T09:03:05.033Z,99.99
2017-07-22T09:04:07.211Z,99.99
2017-07-22T09:05:08.645Z,99.99
2017-07-22T09:06:10.079Z,99.99
2017-07-22T09:07:11.512Z,99.99
2017-07-22T09:08:12.950Z,99.99
2017-07-22T09:09:14.389Z,99.99
2017-07-22T09:10:15.823Z,99.99
2017-07-22T09:11:17.257Z,99.99
2017-07-22T09:12:18.694Z,99.99
2017-07-22T09:13:20.121Z,99.99
2017-07-22T09:14:21.558Z,99.99
2017-07-22T09:15:23.014Z,99.99
2017-07-22T09:16:24.444Z,99.99
2017-07-22T09:17:25.888Z,97.76
2017-07-22T09:18:27.321Z,98.49
2017-07-22T09:19:28.770Z,99.99
2017-07-22T09:20:30.199Z,99.99
2017-07-22T09:21:31.631Z,99.60
2017-07-22T09:22:33.064Z,99.99
2017-07-22T09:23:34.488Z,99.99
2017-07-22T09:24:35.931Z,99.99
2017-07-22T09:25:37.373Z,99.99
2017-07-22T09:26:38.818Z,96.36
2017-07-22T09:27:40.247Z,97.42
2017-07-22T09:28:41.681Z,99.75
2017-07-22T09:29:43.110Z,97.81
2017-07-22T09:30:44.627Z,96.36
2017-07-22T09:31:46.064Z,97.62
2017-07-22T09:32:47.492Z,98.97
2017-07-22T09:33:48.919Z,97.38
2017-07-22T09:34:50.363Z,99.99
2017-07-22T09:35:51.809Z,97.42
2017-07-22T09:36:53.240Z,94.85
2017-07-22T09:37:54.686Z,98.05
2017-07-22T09:38:56.115Z,98.68
2017-07-22T09:39:57.556Z,98.58
2017-07-22T09:40:59.074Z,97.52
2017-07-22T09:42:00.516Z,96.84
2017-07-22T09:43:01.950Z,95.43
2017-07-22T09:44:03.396Z,98.10
2017-07-22T09:45:04.824Z,94.71
2017-07-22T09:46:06.264Z,96.36
2017-07-22T09:47:07.690Z,94.76
2017-07-22T09:48:09.190Z,93.40
2017-07-22T09:49:10.624Z,94.37
2017-07-22T09:50:12.063Z,94.51
2017-07-22T09:51:13.521Z,95.48
2017-07-22T09:52:14.930Z,94.61
2017-07-22T09:53:16.370Z,89.96
2017-07-22T09:54:17.810Z,93.54
2017-07-22T09:55:19.254Z,94.71
2017-07-22T09:56:21.295Z,94.51
2017-07-22T09:57:22.738Z,93.93
2017-07-22T09:58:25.132Z,92.67
2017-07-22T09:59:26.039Z,92.29
2017-07-22T10:00:27.473Z,89.32
2017-07-22T10:01:28.907Z,93.16
2017-07-22T10:02:30.351Z,94.61
2017-07-22T10:03:31.786Z,92.48
2017-07-22T10:04:33.224Z,93.84
2017-07-22T10:05:34.666Z,88.84
2017-07-22T10:06:36.285Z,94.02
2017-07-22T10:07:37.715Z,89.56
2017-07-22T10:08:39.152Z,86.07
2017-07-22T10:09:40.593Z,87.52
2017-07-22T10:10:42.020Z,87.76
2017-07-22T10:11:43.454Z,89.51
2017-07-22T10:12:44.892Z,89.12
2017-07-22T10:13:46.320Z,90.38
2017-07-22T10:14:47.760Z,87.18
2017-07-22T10:15:49.206Z,86.30
2017-07-22T10:16:50.641Z,87.57
2017-07-22T10:17:52.072Z,86.93
2017-07-22T10:18:53.527Z,84.70
2017-07-22T10:19:54.969Z,85.38
2017-07-22T10:20:56.404Z,79.71
2017-07-22T10:21:57.848Z,83.88
2017-07-22T10:22:59.283Z,81.84
2017-07-22T10:24:00.722Z,79.71
2017-07-22T10:25:02.156Z,77.24
2017-07-22T10:26:03.591Z,80.68
2017-07-22T10:27:05.029Z,80.63
2017-07-22T10:28:06.468Z,78.73
2017-07-22T10:29:07.903Z,82.90
2017-07-22T10:30:09.343Z,83.29
2017-07-22T10:31:10.784Z,85.63
2017-07-22T10:32:12.232Z,86.21
2017-07-22T10:33:13.649Z,84.60
2017-07-22T10:34:15.097Z,82.46
2017-07-22T10:35:16.531Z,80.07
2017-07-22T10:36:17.967Z,82.99
2017-07-22T10:37:19.405Z,79.39
2017-07-22T10:38:20.836Z,78.42
2017-07-22T10:39:22.273Z,79.04
2017-07-22T10:40:23.716Z,80.40
2017-07-22T10:41:25.155Z,76.90
2017-07-22T10:42:26.594Z,73.89
2017-07-22T10:43:28.034Z,77.20
2017-07-22T10:44:29.476Z,76.12
2017-07-22T10:45:30.920Z,81.09
2017-07-22T10:46:32.352Z,81.67
2017-07-22T10:47:33.788Z,77.78
2017-07-22T10:48:35.221Z,72.30
2017-07-22T10:49:36.658Z,73.50
2017-07-22T10:50:38.094Z,78.07
2017-07-22T10:51:39.527Z,80.99
2017-07-22T10:52:40.974Z,77.23
2017-07-22T10:53:42.421Z,71.75
2017-07-22T10:54:43.856Z,71.20
2017-07-22T10:55:45.295Z,77.91
2017-07-22T10:56:46.736Z,75.62
2017-07-22T10:57:48.169Z,76.40
2017-07-22T10:58:49.600Z,73.77
2017-07-22T10:59:51.049Z,77.11
2017-07-22T11:00:52.473Z,76.10
2017-07-22T11:01:53.910Z,74.26
2017-07-22T11:02:55.341Z,74.00
2017-07-22T11:03:56.799Z,74.58
2017-07-22T11:04:58.227Z,77.11
2017-07-22T11:05:59.668Z,72.44
2017-07-22T11:07:01.100Z,74.04
2017-07-22T11:08:02.536Z,72.77
2017-07-22T11:09:03.993Z,70.10
2017-07-22T11:10:05.414Z,72.96
2017-07-22T11:11:06.848Z,71.70
2017-07-22T11:12:08.284Z,67.28
2017-07-22T11:13:09.722Z,69.46
2017-07-22T11:14:11.153Z,73.51
2017-07-22T11:15:12.594Z,67.93
2017-07-22T11:16:14.026Z,70.68
2017-07-22T11:17:15.460Z,73.45
2017-07-22T11:18:16.906Z,72.38
2017-07-22T11:19:18.340Z,70.72
2017-07-22T11:20:19.777Z,73.58
2017-07-22T11:21:21.214Z,70.37
2017-07-22T11:22:22.658Z,70.04
2017-07-22T11:23:24.105Z,69.07
2017-07-22T11:24:25.539Z,66.89
2017-07-22T11:25:26.971Z,68.93
2017-07-22T11:26:28.414Z,70.40
2017-07-22T11:27:29.846Z,67.57
2017-07-22T11:28:31.283Z,68.58
2017-07-22T11:29:32.723Z,74.82
2017-07-22T11:30:34.162Z,75.14
2017-07-22T11:31:35.603Z,71.44
2017-07-22T11:32:37.038Z,74.95
2017-07-22T11:33:38.483Z,76.15
2017-07-22T11:34:39.921Z,74.76
2017-07-22T11:35:41.357Z,72.31
2017-07-22T11:36:42.789Z,77.00
2017-07-22T11:37:44.224Z,75.40
2017-07-22T11:38:45.661Z,76.37
2017-07-22T11:39:47.095Z,79.61
2017-07-22T11:40:48.533Z,72.96
2017-07-22T11:41:49.979Z,75.29
2017-07-22T11:42:51.417Z,76.84
2017-07-22T11:43:52.856Z,77.87
2017-07-22T11:44:54.290Z,79.33
2017-07-22T11:45:55.726Z,78.89
2017-07-22T11:46:57.166Z,75.42
2017-07-22T11:47:58.611Z,75.07
2017-07-22T11:49:00.042Z,73.55
2017-07-22T11:50:01.478Z,73.29
2017-07-22T11:51:02.910Z,74.91
2017-07-22T11:52:04.358Z,72.06
2017-07-22T11:53:05.798Z,73.91
2017-07-22T11:54:07.233Z,77.36
2017-07-22T11:55:08.670Z,74.98
2017-07-22T11:56:10.122Z,77.00
2017-07-22T11:57:11.554Z,74.01
2017-07-22T11:58:12.991Z,77.03
2017-07-22T11:59:14.429Z,69.26
2017-07-22T12:00:15.864Z,70.28
2017-07-22T12:01:17.301Z,72.42
2017-07-22T12:02:18.735Z,71.55
2017-07-22T12:03:20.171Z,71.02
2017-07-22T12:04:21.626Z,75.67
2017-07-22T12:05:23.057Z,75.73
2017-07-22T12:06:24.498Z,78.85
2017-07-22T12:07:25.939Z,77.34
2017-07-22T12:08:27.381Z,76.92
2017-07-22T12:09:28.826Z,77.56
2017-07-22T12:10:30.263Z,75.87
2017-07-22T12:11:31.698Z,82.43
2017-07-22T12:12:33.132Z,78.20
2017-07-22T12:13:34.581Z,81.86
2017-07-22T12:14:36.016Z,84.39
2017-07-22T12:15:37.447Z,83.96
2017-07-22T12:16:38.880Z,82.99
2017-07-22T12:17:40.315Z,76.97
2017-07-22T12:18:41.755Z,81.43
2017-07-22T12:19:43.188Z,81.73
2017-07-22T12:20:44.619Z,84.35
2017-07-22T12:21:46.062Z,82.17
2017-07-22T12:22:47.502Z,86.93
2017-07-22T12:23:48.932Z,82.40
2017-07-22T12:24:50.368Z,80.76
2017-07-22T12:25:51.800Z,87.61
2017-07-22T12:26:53.239Z,80.52
2017-07-22T12:27:54.679Z,85.96
2017-07-22T12:28:56.116Z,86.83
2017-07-22T12:29:57.558Z,86.19
2017-07-22T12:30:58.991Z,89.01
2017-07-22T12:32:00.430Z,90.37
2017-07-22T12:33:01.866Z,87.07
2017-07-22T12:34:03.316Z,85.22
2017-07-22T12:35:04.744Z,80.50
2017-07-22T12:36:06.178Z,82.97
2017-07-22T12:37:07.624Z,77.82
2017-07-22T12:38:09.062Z,77.04
2017-07-22T12:39:10.506Z,80.54
2017-07-22T12:40:11.935Z,75.85
2017-07-22T12:41:13.370Z,76.53
2017-07-22T12:42:14.803Z,79.55
2017-07-22T12:43:16.236Z,78.52
2017-07-22T12:44:17.692Z,79.04
2017-07-22T12:45:19.114Z,75.82
2017-07-22T12:46:20.549Z,75.18
2017-07-22T12:47:21.993Z,78.89
2017-07-22T12:48:23.427Z,71.44
2017-07-22T12:49:24.873Z,74.17
2017-07-22T12:50:26.306Z,75.73
2017-07-22T12:51:27.745Z,77.39
2017-07-22T12:52:29.185Z,78.03
2017-07-22T12:53:30.634Z,75.49
2017-07-22T12:54:32.073Z,75.95
2017-07-22T12:55:33.518Z,73.41
2017-07-22T12:56:34.951Z,78.63
2017-07-22T12:57:36.387Z,80.74
2017-07-22T12:58:37.829Z,83.91
2017-07-22T12:59:39.261Z,83.03
2017-07-22T13:00:40.714Z,87.02
2017-07-22T13:01:42.147Z,87.70
2017-07-22T13:02:43.578Z,85.71
2017-07-22T13:03:45.033Z,83.67
2017-07-22T13:04:46.471Z,86.78
2017-07-22T13:05:47.903Z,87.32
2017-07-22T13:06:49.339Z,86.98
2017-07-22T13:07:50.776Z,85.47
2017-07-22T13:08:52.224Z,88.64
2017-07-22T13:09:53.664Z,82.65
2017-07-22T13:10:55.099Z,86.15